sensor_id;sensor_type;location;lat;lon;timestamp;temperature;humidity
58519;DHT22;44310;48.106;12.008;2022-12-29T00:01:04;16.50;93.00
58519;DHT22;44310;48.106;12.008;2022-12-29T00:03:31;16.60;93.10
58519;DHT22;44310;48.106;12.008;2022-12-29T00:06:00;16.60;93.10
58519;DHT22;44310;48.106;12.008;2022-12-29T00:08:27;16.60;93.20
58519;DHT22;44310;48.106;12.008;2022-12-29T00:11:26;16.60;93.30
58519;DHT22;44310;48.106;12.008;2022-12-29T00:13:54;16.50;93.30
58519;DHT22;44310;48.106;12.008;2022-12-29T00:16:41;16.60;93.40
58519;DHT22;44310;48.106;12.008;2022-12-29T00:19:10;16.80;93.50
58519;DHT22;44310;48.106;12.008;2022-12-29T00:21:58;16.60;93.50
58519;DHT22;44310;48.106;12.008;2022-12-29T00:24:44;16.60;93.60
58519;DHT22;44310;48.106;12.008;2022-12-29T00:27:31;16.60;93.60
58519;DHT22;44310;48.106;12.008;2022-12-29T00:30:21;16.60;93.70
58519;DHT22;44310;48.106;12.008;2022-12-29T00:33:15;16.60;93.80
58519;DHT22;44310;48.106;12.008;2022-12-29T00:36:28;16.60;93.70
58519;DHT22;44310;48.106;12.008;2022-12-29T00:39:02;16.60;93.80
58519;DHT22;44310;48.106;12.008;2022-12-29T00:41:48;16.50;93.80
58519;DHT22;44310;48.106;12.008;2022-12-29T00:44:34;16.60;93.90
58519;DHT22;44310;48.106;12.008;2022-12-29T00:47:01;16.60;93.90
58519;DHT22;44310;48.106;12.008;2022-12-29T00:49:31;16.60;93.90
58519;DHT22;44310;48.106;12.008;2022-12-29T00:52:04;16.60;93.90
58519;DHT22;44310;48.106;12.008;2022-12-29T00:54:35;16.60;94.00
58519;DHT22;44310;48.106;12.008;2022-12-29T00:57:04;16.60;94.20
58519;DHT22;44310;48.106;12.008;2022-12-29T00:59:38;16.60;94.30
58519;DHT22;44310;48.106;12.008;2022-12-29T01:02:06;16.60;94.40
58519;DHT22;44310;48.106;12.008;2022-12-29T01:04:34;16.60;94.50
58519;DHT22;44310;48.106;12.008;2022-12-29T01:07:01;16.60;94.60
58519;DHT22;44310;48.106;12.008;2022-12-29T01:09:28;17.00;94.90
58519;DHT22;44310;48.106;12.008;2022-12-29T01:12:14;17.40;95.00
58519;DHT22;44310;48.106;12.008;2022-12-29T01:14:41;16.70;94.90
58519;DHT22;44310;48.106;12.008;2022-12-29T01:17:08;16.70;94.90
58519;DHT22;44310;48.106;12.008;2022-12-29T01:19:35;16.60;94.90
58519;DHT22;44310;48.106;12.008;2022-12-29T01:22:03;16.60;94.80
58519;DHT22;44310;48.106;12.008;2022-12-29T01:24:30;16.50;94.80
58519;DHT22;44310;48.106;12.008;2022-12-29T01:26:57;16.50;94.90
58519;DHT22;44310;48.106;12.008;2022-12-29T01:29:24;16.50;94.90
58519;DHT22;44310;48.106;12.008;2022-12-29T01:31:51;16.50;94.90
58519;DHT22;44310;48.106;12.008;2022-12-29T01:34:18;16.40;94.90
58519;DHT22;44310;48.106;12.008;2022-12-29T01:36:45;16.50;94.90
58519;DHT22;44310;48.106;12.008;2022-12-29T01:39:12;16.50;95.00
58519;DHT22;44310;48.106;12.008;2022-12-29T01:41:40;16.50;95.00
58519;DHT22;44310;48.106;12.008;2022-12-29T01:47:15;16.50;95.10
58519;DHT22;44310;48.106;12.008;2022-12-29T01:49:45;16.40;95.20
58519;DHT22;44310;48.106;12.008;2022-12-29T01:52:12;16.50;95.30
58519;DHT22;44310;48.106;12.008;2022-12-29T01:54:43;16.50;95.40
58519;DHT22;44310;48.106;12.008;2022-12-29T01:57:17;16.50;95.40
58519;DHT22;44310;48.106;12.008;2022-12-29T01:59:53;16.50;95.40
58519;DHT22;44310;48.106;12.008;2022-12-29T02:02:21;17.30;96.10
58519;DHT22;44310;48.106;12.008;2022-12-29T02:04:49;16.60;96.10
58519;DHT22;44310;48.106;12.008;2022-12-29T02:07:21;16.70;96.20
58519;DHT22;44310;48.106;12.008;2022-12-29T02:09:50;16.70;96.30
58519;DHT22;44310;48.106;12.008;2022-12-29T02:12:19;17.30;96.60
58519;DHT22;44310;48.106;12.008;2022-12-29T02:14:49;16.70;96.50
58519;DHT22;44310;48.106;12.008;2022-12-29T02:25:56;16.80;96.80
58519;DHT22;44310;48.106;12.008;2022-12-29T02:28:52;16.80;96.90
58519;DHT22;44310;48.106;12.008;2022-12-29T02:37:12;16.80;97.10
58519;DHT22;44310;48.106;12.008;2022-12-29T02:45:40;16.70;97.00
58519;DHT22;44310;48.106;12.008;2022-12-29T02:51:02;16.70;97.00
58519;DHT22;44310;48.106;12.008;2022-12-29T02:53:32;16.80;97.00
58519;DHT22;44310;48.106;12.008;2022-12-29T02:56:18;16.70;97.00
58519;DHT22;44310;48.106;12.008;2022-12-29T02:58:45;16.70;96.90
58519;DHT22;44310;48.106;12.008;2022-12-29T03:01:28;17.30;97.10
58519;DHT22;44310;48.106;12.008;2022-12-29T03:07:00;16.70;96.90
58519;DHT22;44310;48.106;12.008;2022-12-29T03:09:52;16.70;96.90
58519;DHT22;44310;48.106;12.008;2022-12-29T03:12:30;16.70;96.80
58519;DHT22;44310;48.106;12.008;2022-12-29T03:15:44;16.70;96.90
58519;DHT22;44310;48.106;12.008;2022-12-29T03:18:41;16.70;96.80
58519;DHT22;44310;48.106;12.008;2022-12-29T03:23:42;17.00;97.00
58519;DHT22;44310;48.106;12.008;2022-12-29T03:26:11;16.70;97.00
58519;DHT22;44310;48.106;12.008;2022-12-29T03:28:44;16.70;96.90
58519;DHT22;44310;48.106;12.008;2022-12-29T03:31:13;16.70;97.00
58519;DHT22;44310;48.106;12.008;2022-12-29T03:33:41;16.70;97.10
58519;DHT22;44310;48.106;12.008;2022-12-29T03:36:27;16.70;97.10
58519;DHT22;44310;48.106;12.008;2022-12-29T03:39:03;16.70;97.20
58519;DHT22;44310;48.106;12.008;2022-12-29T03:41:35;16.70;97.20
58519;DHT22;44310;48.106;12.008;2022-12-29T03:44:06;16.70;97.20
58519;DHT22;44310;48.106;12.008;2022-12-29T03:46:33;16.70;97.20
58519;DHT22;44310;48.106;12.008;2022-12-29T03:49:00;17.10;97.30
58519;DHT22;44310;48.106;12.008;2022-12-29T03:51:27;16.70;97.20
58519;DHT22;44310;48.106;12.008;2022-12-29T03:53:54;16.70;97.30
58519;DHT22;44310;48.106;12.008;2022-12-29T03:56:21;16.80;97.40
58519;DHT22;44310;48.106;12.008;2022-12-29T03:58:49;17.30;97.50
58519;DHT22;44310;48.106;12.008;2022-12-29T04:01:16;16.70;97.40
58519;DHT22;44310;48.106;12.008;2022-12-29T04:03:44;16.70;97.50
58519;DHT22;44310;48.106;12.008;2022-12-29T04:06:11;16.70;97.50
58519;DHT22;44310;48.106;12.008;2022-12-29T04:08:38;16.70;97.40
58519;DHT22;44310;48.106;12.008;2022-12-29T04:11:05;16.60;97.20
58519;DHT22;44310;48.106;12.008;2022-12-29T04:13:33;16.60;97.20
58519;DHT22;44310;48.106;12.008;2022-12-29T04:16:00;16.60;97.30
58519;DHT22;44310;48.106;12.008;2022-12-29T04:18:27;16.50;97.50
58519;DHT22;44310;48.106;12.008;2022-12-29T04:20:54;16.50;97.20
58519;DHT22;44310;48.106;12.008;2022-12-29T04:23:30;16.50;97.30
58519;DHT22;44310;48.106;12.008;2022-12-29T04:25:57;16.50;97.30
58519;DHT22;44310;48.106;12.008;2022-12-29T04:28:25;16.60;97.30
58519;DHT22;44310;48.106;12.008;2022-12-29T04:30:52;16.50;97.30
58519;DHT22;44310;48.106;12.008;2022-12-29T04:33:20;16.60;97.30
58519;DHT22;44310;48.106;12.008;2022-12-29T04:35:47;16.90;97.70
58519;DHT22;44310;48.106;12.008;2022-12-29T04:38:15;17.00;97.40
58519;DHT22;44310;48.106;12.008;2022-12-29T04:40:43;16.50;97.20
58519;DHT22;44310;48.106;12.008;2022-12-29T04:43:11;16.50;97.30
58519;DHT22;44310;48.106;12.008;2022-12-29T04:45:42;16.50;97.30
58519;DHT22;44310;48.106;12.008;2022-12-29T04:48:09;16.50;97.40
58519;DHT22;44310;48.106;12.008;2022-12-29T04:50:37;16.50;97.40
58519;DHT22;44310;48.106;12.008;2022-12-29T04:53:04;16.50;97.40
58519;DHT22;44310;48.106;12.008;2022-12-29T04:55:32;16.50;97.40
58519;DHT22;44310;48.106;12.008;2022-12-29T04:57:59;16.60;97.60
58519;DHT22;44310;48.106;12.008;2022-12-29T05:00:26;16.60;97.70
58519;DHT22;44310;48.106;12.008;2022-12-29T05:02:53;16.70;97.80
58519;DHT22;44310;48.106;12.008;2022-12-29T05:05:20;16.70;97.80
58519;DHT22;44310;48.106;12.008;2022-12-29T05:07:47;16.70;97.80
58519;DHT22;44310;48.106;12.008;2022-12-29T05:10:14;16.70;98.10
58519;DHT22;44310;48.106;12.008;2022-12-29T05:12:41;16.70;97.90
58519;DHT22;44310;48.106;12.008;2022-12-29T05:15:10;16.70;97.90
58519;DHT22;44310;48.106;12.008;2022-12-29T05:17:37;16.70;98.00
58519;DHT22;44310;48.106;12.008;2022-12-29T05:20:05;16.70;98.00
58519;DHT22;44310;48.106;12.008;2022-12-29T05:22:32;16.70;98.00
58519;DHT22;44310;48.106;12.008;2022-12-29T05:24:59;16.80;98.00
58519;DHT22;44310;48.106;12.008;2022-12-29T05:27:26;16.70;98.00
58519;DHT22;44310;48.106;12.008;2022-12-29T05:29:53;16.70;97.90
58519;DHT22;44310;48.106;12.008;2022-12-29T05:32:21;16.70;97.90
58519;DHT22;44310;48.106;12.008;2022-12-29T05:34:48;16.60;97.90
58519;DHT22;44310;48.106;12.008;2022-12-29T05:37:15;16.60;97.90
58519;DHT22;44310;48.106;12.008;2022-12-29T05:39:44;16.60;98.00
58519;DHT22;44310;48.106;12.008;2022-12-29T05:42:11;16.60;98.00
58519;DHT22;44310;48.106;12.008;2022-12-29T05:44:38;16.60;98.00
58519;DHT22;44310;48.106;12.008;2022-12-29T05:47:05;16.60;98.00
58519;DHT22;44310;48.106;12.008;2022-12-29T05:49:32;16.50;98.00
58519;DHT22;44310;48.106;12.008;2022-12-29T05:51:59;16.60;98.00
58519;DHT22;44310;48.106;12.008;2022-12-29T05:54:27;16.60;98.00
58519;DHT22;44310;48.106;12.008;2022-12-29T05:56:54;16.60;98.10
58519;DHT22;44310;48.106;12.008;2022-12-29T05:59:21;16.60;98.10
58519;DHT22;44310;48.106;12.008;2022-12-29T06:01:48;16.60;98.10
58519;DHT22;44310;48.106;12.008;2022-12-29T06:04:16;16.60;98.10
58519;DHT22;44310;48.106;12.008;2022-12-29T06:06:43;16.50;97.90
58519;DHT22;44310;48.106;12.008;2022-12-29T06:09:10;16.50;97.90
58519;DHT22;44310;48.106;12.008;2022-12-29T06:11:37;16.50;97.90
58519;DHT22;44310;48.106;12.008;2022-12-29T06:14:05;16.50;97.90
58519;DHT22;44310;48.106;12.008;2022-12-29T06:16:32;16.50;97.90
58519;DHT22;44310;48.106;12.008;2022-12-29T06:18:59;16.50;97.90
58519;DHT22;44310;48.106;12.008;2022-12-29T06:21:26;16.50;98.00
58519;DHT22;44310;48.106;12.008;2022-12-29T06:23:53;16.60;98.10
58519;DHT22;44310;48.106;12.008;2022-12-29T06:26:20;16.60;98.20
58519;DHT22;44310;48.106;12.008;2022-12-29T06:28:47;16.70;98.30
58519;DHT22;44310;48.106;12.008;2022-12-29T06:31:14;16.70;98.40
58519;DHT22;44310;48.106;12.008;2022-12-29T06:33:42;16.80;98.50
58519;DHT22;44310;48.106;12.008;2022-12-29T06:36:14;16.70;98.80
58519;DHT22;44310;48.106;12.008;2022-12-29T06:38:41;16.70;98.50
58519;DHT22;44310;48.106;12.008;2022-12-29T06:41:08;16.70;98.60
58519;DHT22;44310;48.106;12.008;2022-12-29T06:43:35;16.80;98.60
58519;DHT22;44310;48.106;12.008;2022-12-29T06:46:05;16.70;98.60
58519;DHT22;44310;48.106;12.008;2022-12-29T06:48:32;16.70;98.60
58519;DHT22;44310;48.106;12.008;2022-12-29T06:51:00;16.70;98.60
58519;DHT22;44310;48.106;12.008;2022-12-29T06:53:27;16.90;98.70
58519;DHT22;44310;48.106;12.008;2022-12-29T06:55:54;16.80;99.00
58519;DHT22;44310;48.106;12.008;2022-12-29T06:58:23;16.80;98.80
58519;DHT22;44310;48.106;12.008;2022-12-29T07:00:50;17.30;98.90
58519;DHT22;44310;48.106;12.008;2022-12-29T07:03:17;17.60;98.90
58519;DHT22;44310;48.106;12.008;2022-12-29T07:05:45;16.80;98.70
58519;DHT22;44310;48.106;12.008;2022-12-29T07:08:12;16.80;98.70
58519;DHT22;44310;48.106;12.008;2022-12-29T07:10:39;16.80;98.70
58519;DHT22;44310;48.106;12.008;2022-12-29T07:13:06;16.70;98.70
58519;DHT22;44310;48.106;12.008;2022-12-29T07:15:36;16.80;98.70
58519;DHT22;44310;48.106;12.008;2022-12-29T07:18:04;16.80;98.80
58519;DHT22;44310;48.106;12.008;2022-12-29T07:20:31;16.80;98.70
58519;DHT22;44310;48.106;12.008;2022-12-29T07:22:58;16.80;98.60
58519;DHT22;44310;48.106;12.008;2022-12-29T07:25:25;16.80;98.70
58519;DHT22;44310;48.106;12.008;2022-12-29T07:27:53;16.90;98.70
58519;DHT22;44310;48.106;12.008;2022-12-29T07:30:20;17.20;98.80
58519;DHT22;44310;48.106;12.008;2022-12-29T07:32:47;16.80;98.60
58519;DHT22;44310;48.106;12.008;2022-12-29T07:35:15;16.70;98.50
58519;DHT22;44310;48.106;12.008;2022-12-29T07:37:43;16.70;98.50
58519;DHT22;44310;48.106;12.008;2022-12-29T07:40:11;16.80;98.60
58519;DHT22;44310;48.106;12.008;2022-12-29T07:42:38;16.80;98.60
58519;DHT22;44310;48.106;12.008;2022-12-29T07:45:05;16.80;98.50
58519;DHT22;44310;48.106;12.008;2022-12-29T07:47:33;16.80;98.50
58519;DHT22;44310;48.106;12.008;2022-12-29T07:50:00;16.70;98.40
58519;DHT22;44310;48.106;12.008;2022-12-29T07:52:27;16.70;98.40
58519;DHT22;44310;48.106;12.008;2022-12-29T07:54:54;16.70;98.40
58519;DHT22;44310;48.106;12.008;2022-12-29T07:57:21;16.80;98.60
58519;DHT22;44310;48.106;12.008;2022-12-29T07:59:57;16.60;97.70
58519;DHT22;44310;48.106;12.008;2022-12-29T08:02:24;15.90;84.80
58519;DHT22;44310;48.106;12.008;2022-12-29T08:04:53;15.00;88.30
58519;DHT22;44310;48.106;12.008;2022-12-29T08:07:21;14.90;91.80
58519;DHT22;44310;48.106;12.008;2022-12-29T08:09:48;14.90;92.10
58519;DHT22;44310;48.106;12.008;2022-12-29T08:12:15;15.10;92.70
58519;DHT22;44310;48.106;12.008;2022-12-29T08:14:42;15.30;92.90
58519;DHT22;44310;48.106;12.008;2022-12-29T08:17:09;15.50;93.30
58519;DHT22;44310;48.106;12.008;2022-12-29T08:19:37;15.70;93.60
58519;DHT22;44310;48.106;12.008;2022-12-29T08:22:04;15.70;93.70
58519;DHT22;44310;48.106;12.008;2022-12-29T08:24:31;15.80;93.80
58519;DHT22;44310;48.106;12.008;2022-12-29T08:26:58;16.00;94.00
58519;DHT22;44310;48.106;12.008;2022-12-29T08:29:35;16.00;94.10
58519;DHT22;44310;48.106;12.008;2022-12-29T08:32:02;16.10;94.20
58519;DHT22;44310;48.106;12.008;2022-12-29T08:34:30;16.10;94.20
58519;DHT22;44310;48.106;12.008;2022-12-29T08:36:58;16.20;94.20
58519;DHT22;44310;48.106;12.008;2022-12-29T08:39:25;16.20;94.20
58519;DHT22;44310;48.106;12.008;2022-12-29T08:41:52;16.20;94.20
58519;DHT22;44310;48.106;12.008;2022-12-29T08:44:19;16.30;94.30
58519;DHT22;44310;48.106;12.008;2022-12-29T08:46:46;16.30;94.30
58519;DHT22;44310;48.106;12.008;2022-12-29T08:49:13;16.30;94.30
58519;DHT22;44310;48.106;12.008;2022-12-29T08:51:40;16.30;94.30
58519;DHT22;44310;48.106;12.008;2022-12-29T08:54:08;16.40;94.30
58519;DHT22;44310;48.106;12.008;2022-12-29T08:56:35;16.40;94.30
58519;DHT22;44310;48.106;12.008;2022-12-29T08:59:02;16.40;94.20
58519;DHT22;44310;48.106;12.008;2022-12-29T09:01:29;16.40;94.20
58519;DHT22;44310;48.106;12.008;2022-12-29T09:03:57;16.40;94.20
58519;DHT22;44310;48.106;12.008;2022-12-29T09:06:44;16.40;94.10
58519;DHT22;44310;48.106;12.008;2022-12-29T09:09:12;16.40;94.00
58519;DHT22;44310;48.106;12.008;2022-12-29T09:11:39;16.40;93.90
58519;DHT22;44310;48.106;12.008;2022-12-29T09:14:06;16.40;93.80
58519;DHT22;44310;48.106;12.008;2022-12-29T09:16:34;16.40;93.70
58519;DHT22;44310;48.106;12.008;2022-12-29T09:19:02;16.40;93.60
58519;DHT22;44310;48.106;12.008;2022-12-29T09:21:30;16.40;93.50
58519;DHT22;44310;48.106;12.008;2022-12-29T09:23:57;16.40;93.50
58519;DHT22;44310;48.106;12.008;2022-12-29T09:26:24;16.40;93.50
58519;DHT22;44310;48.106;12.008;2022-12-29T09:28:51;16.40;93.50
58519;DHT22;44310;48.106;12.008;2022-12-29T09:31:18;16.40;93.40
58519;DHT22;44310;48.106;12.008;2022-12-29T09:33:46;16.40;93.40
58519;DHT22;44310;48.106;12.008;2022-12-29T09:36:13;16.40;93.40
58519;DHT22;44310;48.106;12.008;2022-12-29T09:38:40;16.40;93.30
58519;DHT22;44310;48.106;12.008;2022-12-29T09:41:25;16.40;93.20
58519;DHT22;44310;48.106;12.008;2022-12-29T09:44:38;16.40;93.20
58519;DHT22;44310;48.106;12.008;2022-12-29T09:46:56;16.40;93.10
58519;DHT22;44310;48.106;12.008;2022-12-29T09:49:33;16.90;93.20
58519;DHT22;44310;48.106;12.008;2022-12-29T09:52:34;16.40;92.90
58519;DHT22;44310;48.106;12.008;2022-12-29T09:55:04;16.40;92.80
58519;DHT22;44310;48.106;12.008;2022-12-29T09:57:52;16.40;92.80
58519;DHT22;44310;48.106;12.008;2022-12-29T10:00:23;16.40;92.70
58519;DHT22;44310;48.106;12.008;2022-12-29T10:02:54;16.50;92.70
58519;DHT22;44310;48.106;12.008;2022-12-29T10:05:35;16.30;92.50
58519;DHT22;44310;48.106;12.008;2022-12-29T10:08:16;16.30;92.40
58519;DHT22;44310;48.106;12.008;2022-12-29T10:11:40;16.30;92.50
58519;DHT22;44310;48.106;12.008;2022-12-29T10:14:06;16.30;92.50
58519;DHT22;44310;48.106;12.008;2022-12-29T10:22:38;16.40;92.40
58519;DHT22;44310;48.106;12.008;2022-12-29T10:25:26;16.40;92.40
58519;DHT22;44310;48.106;12.008;2022-12-29T10:28:03;16.40;92.50
58519;DHT22;44310;48.106;12.008;2022-12-29T10:30:33;16.40;92.50
58519;DHT22;44310;48.106;12.008;2022-12-29T10:33:10;16.40;92.60
58519;DHT22;44310;48.106;12.008;2022-12-29T10:35:39;16.50;92.70
58519;DHT22;44310;48.106;12.008;2022-12-29T10:38:35;16.40;92.70
58519;DHT22;44310;48.106;12.008;2022-12-29T10:43:46;16.40;92.50
58519;DHT22;44310;48.106;12.008;2022-12-29T10:46:18;16.40;92.60
58519;DHT22;44310;48.106;12.008;2022-12-29T10:48:45;16.40;92.60
58519;DHT22;44310;48.106;12.008;2022-12-29T10:51:22;16.40;92.50
58519;DHT22;44310;48.106;12.008;2022-12-29T10:54:19;16.40;92.40
58519;DHT22;44310;48.106;12.008;2022-12-29T10:56:52;16.40;92.40
58519;DHT22;44310;48.106;12.008;2022-12-29T10:59:23;16.30;92.40
58519;DHT22;44310;48.106;12.008;2022-12-29T11:05:05;16.30;92.30
58519;DHT22;44310;48.106;12.008;2022-12-29T11:07:34;16.30;92.20
58519;DHT22;44310;48.106;12.008;2022-12-29T11:13:10;16.30;92.10
58519;DHT22;44310;48.106;12.008;2022-12-29T11:15:45;16.30;92.20
58519;DHT22;44310;48.106;12.008;2022-12-29T11:18:37;16.40;92.50
58519;DHT22;44310;48.106;12.008;2022-12-29T11:23:59;16.40;92.40
58519;DHT22;44310;48.106;12.008;2022-12-29T11:26:27;16.50;92.40
58519;DHT22;44310;48.106;12.008;2022-12-29T11:31:43;16.40;92.30
58519;DHT22;44310;48.106;12.008;2022-12-29T11:34:37;16.50;92.40
58519;DHT22;44310;48.106;12.008;2022-12-29T11:37:10;16.50;92.50
58519;DHT22;44310;48.106;12.008;2022-12-29T11:39:57;17.10;92.80
58519;DHT22;44310;48.106;12.008;2022-12-29T11:45:06;16.50;92.60
58519;DHT22;44310;48.106;12.008;2022-12-29T11:47:37;16.50;92.60
58519;DHT22;44310;48.106;12.008;2022-12-29T11:50:06;16.50;92.50
58519;DHT22;44310;48.106;12.008;2022-12-29T11:52:36;16.50;92.60
58519;DHT22;44310;48.106;12.008;2022-12-29T11:55:17;16.50;92.60
58519;DHT22;44310;48.106;12.008;2022-12-29T11:57:45;16.50;92.60
58519;DHT22;44310;48.106;12.008;2022-12-29T12:00:21;16.50;92.60
58519;DHT22;44310;48.106;12.008;2022-12-29T12:03:13;16.50;92.60
58519;DHT22;44310;48.106;12.008;2022-12-29T12:05:57;16.50;92.90
58519;DHT22;44310;48.106;12.008;2022-12-29T12:08:35;16.50;92.60
58519;DHT22;44310;48.106;12.008;2022-12-29T12:17:00;16.60;93.10
58519;DHT22;44310;48.106;12.008;2022-12-29T12:19:40;16.70;93.10
58519;DHT22;44310;48.106;12.008;2022-12-29T12:22:31;16.70;93.20
58519;DHT22;44310;48.106;12.008;2022-12-29T12:25:13;16.70;92.90
58519;DHT22;44310;48.106;12.008;2022-12-29T12:27:59;16.80;92.70
58519;DHT22;44310;48.106;12.008;2022-12-29T12:30:36;16.80;92.50
58519;DHT22;44310;48.106;12.008;2022-12-29T12:33:12;16.80;92.50
58519;DHT22;44310;48.106;12.008;2022-12-29T12:41:50;16.80;92.20
58519;DHT22;44310;48.106;12.008;2022-12-29T12:44:40;16.80;92.20
58519;DHT22;44310;48.106;12.008;2022-12-29T12:47:29;16.80;92.10
58519;DHT22;44310;48.106;12.008;2022-12-29T12:50:19;16.80;91.50
58519;DHT22;44310;48.106;12.008;2022-12-29T13:01:16;16.60;91.00
58519;DHT22;44310;48.106;12.008;2022-12-29T13:04:19;16.50;90.40
58519;DHT22;44310;48.106;12.008;2022-12-29T13:18:59;16.30;86.20
58519;DHT22;44310;48.106;12.008;2022-12-29T13:21:49;16.30;85.80
58519;DHT22;44310;48.106;12.008;2022-12-29T13:25:02;16.10;80.70
58519;DHT22;44310;48.106;12.008;2022-12-29T13:30:15;15.60;72.10
58519;DHT22;44310;48.106;12.008;2022-12-29T13:38:39;15.20;70.70
58519;DHT22;44310;48.106;12.008;2022-12-29T13:41:23;15.20;73.00
58519;DHT22;44310;48.106;12.008;2022-12-29T13:43:52;15.30;73.20
58519;DHT22;44310;48.106;12.008;2022-12-29T13:46:28;15.60;73.30
58519;DHT22;44310;48.106;12.008;2022-12-29T13:49:14;15.40;74.60
58519;DHT22;44310;48.106;12.008;2022-12-29T13:51:49;15.60;75.60
58519;DHT22;44310;48.106;12.008;2022-12-29T13:54:27;15.60;76.20
58519;DHT22;44310;48.106;12.008;2022-12-29T13:57:23;15.70;77.20
58519;DHT22;44310;48.106;12.008;2022-12-29T14:00:02;15.70;76.80
58519;DHT22;44310;48.106;12.008;2022-12-29T14:08:00;15.60;75.10
58519;DHT22;44310;48.106;12.008;2022-12-29T14:10:36;15.50;74.50
58519;DHT22;44310;48.106;12.008;2022-12-29T14:15:41;14.90;71.20
58519;DHT22;44310;48.106;12.008;2022-12-29T14:21:20;15.10;75.10
58519;DHT22;44310;48.106;12.008;2022-12-29T14:24:26;15.20;76.00
58519;DHT22;44310;48.106;12.008;2022-12-29T14:26:47;15.40;76.90
58519;DHT22;44310;48.106;12.008;2022-12-29T14:31:54;15.80;78.70
58519;DHT22;44310;48.106;12.008;2022-12-29T14:39:38;15.70;78.00
58519;DHT22;44310;48.106;12.008;2022-12-29T14:44:50;15.70;79.10
58519;DHT22;44310;48.106;12.008;2022-12-29T14:49:54;15.80;79.90
58519;DHT22;44310;48.106;12.008;2022-12-29T14:52:24;15.80;80.40
58519;DHT22;44310;48.106;12.008;2022-12-29T14:55:53;15.80;80.20
58519;DHT22;44310;48.106;12.008;2022-12-29T14:58:01;15.80;80.60
58519;DHT22;44310;48.106;12.008;2022-12-29T15:00:34;15.80;80.70
58519;DHT22;44310;48.106;12.008;2022-12-29T15:03:23;15.80;81.00
58519;DHT22;44310;48.106;12.008;2022-12-29T15:09:20;15.80;81.60
58519;DHT22;44310;48.106;12.008;2022-12-29T15:14:54;15.80;82.40
58519;DHT22;44310;48.106;12.008;2022-12-29T15:17:28;15.70;82.80
58519;DHT22;44310;48.106;12.008;2022-12-29T15:19:59;15.70;82.30
58519;DHT22;44310;48.106;12.008;2022-12-29T15:22:27;15.70;81.60
58519;DHT22;44310;48.106;12.008;2022-12-29T15:24:55;15.70;80.50
58519;DHT22;44310;48.106;12.008;2022-12-29T15:27:26;15.50;81.20
58519;DHT22;44310;48.106;12.008;2022-12-29T15:30:03;15.40;79.80
58519;DHT22;44310;48.106;12.008;2022-12-29T15:32:40;15.40;81.00
58519;DHT22;44310;48.106;12.008;2022-12-29T15:35:32;15.50;81.10
58519;DHT22;44310;48.106;12.008;2022-12-29T15:38:00;15.60;81.40
58519;DHT22;44310;48.106;12.008;2022-12-29T15:40:32;15.70;81.70
58519;DHT22;44310;48.106;12.008;2022-12-29T15:46:13;15.90;81.90
58519;DHT22;44310;48.106;12.008;2022-12-29T15:48:41;16.00;82.00
58519;DHT22;44310;48.106;12.008;2022-12-29T15:51:29;16.00;82.30
58519;DHT22;44310;48.106;12.008;2022-12-29T15:53:58;16.10;82.80
58519;DHT22;44310;48.106;12.008;2022-12-29T15:56:28;16.10;83.50
58519;DHT22;44310;48.106;12.008;2022-12-29T15:58:56;16.10;83.80
58519;DHT22;44310;48.106;12.008;2022-12-29T16:01:33;16.20;84.40
58519;DHT22;44310;48.106;12.008;2022-12-29T16:04:05;16.20;84.70
58519;DHT22;44310;48.106;12.008;2022-12-29T16:06:44;16.30;85.50
58519;DHT22;44310;48.106;12.008;2022-12-29T16:09:34;16.30;86.20
58519;DHT22;44310;48.106;12.008;2022-12-29T16:12:06;16.30;86.60
58519;DHT22;44310;48.106;12.008;2022-12-29T16:14:42;16.30;86.90
58519;DHT22;44310;48.106;12.008;2022-12-29T16:17:14;16.30;87.40
58519;DHT22;44310;48.106;12.008;2022-12-29T16:19:57;16.40;87.90
58519;DHT22;44310;48.106;12.008;2022-12-29T16:22:39;16.40;87.90
58519;DHT22;44310;48.106;12.008;2022-12-29T16:25:30;16.40;88.50
58519;DHT22;44310;48.106;12.008;2022-12-29T16:27:59;16.40;88.90
58519;DHT22;44310;48.106;12.008;2022-12-29T16:30:30;16.40;88.90
58519;DHT22;44310;48.106;12.008;2022-12-29T16:33:05;16.50;89.00
58519;DHT22;44310;48.106;12.008;2022-12-29T16:35:44;16.40;89.00
58519;DHT22;44310;48.106;12.008;2022-12-29T16:38:20;16.30;89.50
58519;DHT22;44310;48.106;12.008;2022-12-29T16:40:55;16.40;89.90
58519;DHT22;44310;48.106;12.008;2022-12-29T16:43:32;16.40;89.80
58519;DHT22;44310;48.106;12.008;2022-12-29T16:48:34;16.40;90.00
58519;DHT22;44310;48.106;12.008;2022-12-29T16:51:13;16.40;90.00
58519;DHT22;44310;48.106;12.008;2022-12-29T16:53:47;16.30;90.20
58519;DHT22;44310;48.106;12.008;2022-12-29T16:56:37;16.40;90.20
58519;DHT22;44310;48.106;12.008;2022-12-29T16:59:26;16.30;90.20
58519;DHT22;44310;48.106;12.008;2022-12-29T17:01:57;16.40;90.30
58519;DHT22;44310;48.106;12.008;2022-12-29T17:04:26;16.40;90.20
58519;DHT22;44310;48.106;12.008;2022-12-29T17:06:53;16.40;90.30
58519;DHT22;44310;48.106;12.008;2022-12-29T17:09:23;16.40;90.20
58519;DHT22;44310;48.106;12.008;2022-12-29T17:11:52;16.40;90.20
58519;DHT22;44310;48.106;12.008;2022-12-29T17:14:52;16.40;90.30
58519;DHT22;44310;48.106;12.008;2022-12-29T17:17:46;16.40;90.40
58519;DHT22;44310;48.106;12.008;2022-12-29T17:20:22;16.40;90.40
58519;DHT22;44310;48.106;12.008;2022-12-29T17:22:51;16.40;90.40
58519;DHT22;44310;48.106;12.008;2022-12-29T17:25:24;16.40;90.40
58519;DHT22;44310;48.106;12.008;2022-12-29T17:30:28;16.40;90.20
58519;DHT22;44310;48.106;12.008;2022-12-29T17:33:03;16.40;90.20
58519;DHT22;44310;48.106;12.008;2022-12-29T17:35:31;16.50;90.20
58519;DHT22;44310;48.106;12.008;2022-12-29T17:37:58;16.40;90.20
58519;DHT22;44310;48.106;12.008;2022-12-29T17:40:31;16.40;90.10
58519;DHT22;44310;48.106;12.008;2022-12-29T17:42:59;16.40;90.10
58519;DHT22;44310;48.106;12.008;2022-12-29T17:45:28;16.40;90.10
58519;DHT22;44310;48.106;12.008;2022-12-29T17:47:56;16.40;90.00
58519;DHT22;44310;48.106;12.008;2022-12-29T17:50:27;16.40;90.00
58519;DHT22;44310;48.106;12.008;2022-12-29T17:52:59;16.40;90.00
58519;DHT22;44310;48.106;12.008;2022-12-29T17:55:28;16.40;90.00
58519;DHT22;44310;48.106;12.008;2022-12-29T17:58:31;16.40;90.00
58519;DHT22;44310;48.106;12.008;2022-12-29T18:01:00;16.40;89.80
58519;DHT22;44310;48.106;12.008;2022-12-29T18:03:33;16.40;89.70
58519;DHT22;44310;48.106;12.008;2022-12-29T18:06:02;16.40;89.60